createdAt,value
2023-04-10T00:00:05.303Z,38.69
2023-04-10T00:02:33.602Z,38.62
2023-04-10T00:05:01.567Z,38.73
2023-04-10T00:07:29.404Z,38.45
2023-04-10T00:09:57.006Z,38.46
2023-04-10T00:12:25.178Z,39.11
2023-04-10T00:14:52.703Z,38.62
2023-04-10T00:17:20.183Z,38.54
2023-04-10T00:19:47.725Z,38.65
2023-04-10T00:22:15.414Z,38.75
2023-04-10T00:24:42.902Z,38.76
2023-04-10T00:27:10.441Z,38.89
2023-04-10T00:29:38.268Z,39.19
2023-04-10T00:32:05.815Z,38.71
2023-04-10T00:34:33.412Z,39.25
2023-04-10T00:37:01.120Z,39.13
2023-04-10T00:39:28.639Z,39.31
2023-04-10T00:41:57.562Z,38.78
2023-04-10T00:44:25.213Z,39.04
2023-04-10T00:46:52.852Z,39.04
2023-04-10T00:49:21.802Z,38.94
2023-04-10T00:51:49.631Z,39.39
2023-04-10T00:54:17.175Z,39.26
2023-04-10T00:56:46.829Z,39.33
2023-04-10T00:59:14.499Z,38.87
2023-04-10T01:01:43.355Z,39.50
2023-04-10T01:04:11.623Z,39.17
2023-04-10T01:07:04.099Z,39.42
2023-04-10T01:10:00.209Z,39.07
2023-04-10T01:12:54.805Z,39.23
2023-04-10T01:15:30.684Z,39.26
2023-04-10T01:18:51.017Z,39.52
2023-04-10T01:21:21.097Z,39.48
2023-04-10T01:24:33.299Z,39.19
2023-04-10T01:27:29.460Z,39.51
2023-04-10T01:30:01.216Z,39.67
2023-04-10T01:32:30.856Z,39.34
2023-04-10T01:35:01.144Z,39.28
2023-04-10T01:37:31.890Z,39.57
2023-04-10T01:40:03.326Z,39.74
2023-04-10T01:42:38.740Z,39.80
2023-04-10T01:45:12.261Z,39.46
2023-04-10T01:47:40.157Z,39.50
2023-04-10T01:50:09.760Z,39.59
2023-04-10T01:52:38.081Z,39.73
2023-04-10T01:55:15.789Z,39.27
2023-04-10T01:57:49.236Z,39.57
2023-04-10T02:00:17.998Z,39.62
2023-04-10T02:02:46.736Z,39.63
2023-04-10T02:05:16.406Z,40.03
2023-04-10T02:07:57.501Z,39.93
2023-04-10T02:10:43.662Z,39.79
2023-04-10T02:13:14.533Z,40.01
2023-04-10T02:15:46.501Z,40.19
2023-04-10T02:18:18.609Z,39.90
2023-04-10T02:20:46.354Z,40.24
2023-04-10T02:23:17.352Z,40.40
2023-04-10T02:25:45.144Z,40.10
2023-04-10T02:28:12.714Z,40.25
2023-04-10T02:30:40.303Z,39.99
2023-04-10T02:33:07.817Z,40.21
2023-04-10T02:35:35.954Z,40.42
2023-04-10T02:38:04.265Z,40.52
2023-04-10T02:40:35.758Z,40.21
2023-04-10T02:43:29.628Z,40.15
2023-04-10T02:45:57.666Z,40.58
2023-04-10T02:48:27.682Z,40.23
2023-04-10T02:50:59.939Z,40.54
2023-04-10T02:53:29.100Z,40.64
2023-04-10T02:56:00.442Z,40.60
2023-04-10T02:58:30.373Z,40.41
2023-04-10T03:00:58.414Z,40.51
2023-04-10T03:03:46.183Z,40.46
2023-04-10T03:06:19.758Z,40.66
2023-04-10T03:08:47.945Z,40.74
2023-04-10T03:11:15.486Z,41.02
2023-04-10T03:13:42.974Z,41.16
2023-04-10T03:16:10.758Z,41.42
2023-04-10T03:18:38.603Z,41.30
2023-04-10T03:21:06.511Z,41.50
2023-04-10T03:23:34.069Z,41.58
2023-04-10T03:26:01.806Z,41.76
2023-04-10T03:28:32.827Z,41.43
2023-04-10T03:31:01.913Z,41.23
2023-04-10T03:33:32.997Z,41.34
2023-04-10T03:36:01.248Z,41.42
2023-04-10T03:38:28.815Z,41.21
2023-04-10T03:40:56.725Z,41.18
2023-04-10T03:43:26.365Z,41.04
2023-04-10T03:45:53.940Z,40.94
2023-04-10T03:48:22.591Z,40.92
2023-04-10T03:50:50.091Z,41.28
2023-04-10T03:53:17.750Z,41.31
2023-04-10T03:55:46.402Z,40.87
2023-04-10T03:58:14.017Z,41.11
2023-04-10T04:00:41.718Z,40.95
2023-04-10T04:03:20.803Z,40.91
2023-04-10T04:06:06.872Z,40.80
2023-04-10T04:08:41.674Z,40.79
2023-04-10T04:11:09.231Z,40.91
2023-04-10T04:13:47.695Z,41.00
2023-04-10T04:16:35.708Z,41.04
2023-04-10T04:19:29.210Z,41.13
2023-04-10T04:22:14.217Z,41.19
2023-04-10T04:25:00.382Z,40.95
2023-04-10T04:28:00.082Z,40.98
2023-04-10T04:30:56.177Z,41.09
2023-04-10T04:33:37.168Z,41.21
2023-04-10T04:36:24.941Z,41.16
2023-04-10T04:39:08.235Z,40.69
2023-04-10T04:41:50.500Z,40.87
2023-04-10T04:44:53.052Z,41.10
2023-04-10T04:47:43.806Z,41.21
2023-04-10T04:50:21.720Z,41.10
2023-04-10T04:53:24.635Z,41.44
2023-04-10T04:56:12.524Z,41.04
2023-04-10T04:59:00.085Z,41.17
2023-04-10T05:01:41.337Z,41.29
2023-04-10T05:04:20.593Z,40.97
2023-04-10T05:06:57.411Z,41.22
2023-04-10T05:10:00.452Z,41.02
2023-04-10T05:12:46.620Z,41.36
2023-04-10T05:15:25.586Z,41.27
2023-04-10T05:18:14.426Z,41.26
2023-04-10T05:20:56.302Z,41.29
2023-04-10T05:23:40.848Z,41.08
2023-04-10T05:26:30.559Z,41.11
2023-04-10T05:29:12.436Z,40.93
2023-04-10T05:32:07.879Z,41.01
2023-04-10T05:34:58.597Z,41.02
2023-04-10T05:37:43.562Z,40.79
2023-04-10T05:40:32.472Z,41.14
2023-04-10T05:43:21.977Z,40.84
2023-04-10T05:46:12.442Z,40.90
2023-04-10T05:48:55.600Z,40.73
2023-04-10T05:51:35.019Z,41.19
2023-04-10T05:54:18.324Z,40.74
2023-04-10T05:57:04.694Z,40.90
2023-04-10T06:00:08.159Z,40.66
2023-04-10T06:02:41.475Z,41.04
2023-04-10T06:05:16.192Z,40.97
2023-04-10T06:07:44.224Z,40.70
2023-04-10T06:10:11.710Z,40.63
2023-04-10T06:12:39.438Z,40.64
2023-04-10T06:15:10.741Z,40.92
2023-04-10T06:17:43.635Z,41.13
2023-04-10T06:20:11.755Z,40.79
2023-04-10T06:22:39.229Z,41.10
2023-04-10T06:25:07.289Z,41.09
2023-04-10T06:27:38.214Z,41.33
2023-04-10T06:30:11.136Z,41.08
2023-04-10T06:32:38.734Z,41.25
2023-04-10T06:35:07.259Z,41.39
2023-04-10T06:37:34.898Z,41.33
2023-04-10T06:40:11.228Z,41.12
2023-04-10T06:42:38.787Z,41.07
2023-04-10T06:45:14.666Z,41.37
2023-04-10T06:47:42.233Z,41.32
2023-04-10T06:50:10.456Z,41.83
2023-04-10T06:52:38.075Z,41.70
2023-04-10T06:55:06.413Z,41.56
2023-04-10T06:57:33.904Z,41.68
2023-04-10T07:00:01.470Z,41.21
2023-04-10T07:02:29.129Z,41.46
2023-04-10T07:04:56.913Z,41.12
2023-04-10T07:07:24.515Z,41.22
2023-04-10T07:09:52.072Z,41.06
2023-04-10T07:12:19.584Z,41.09
2023-04-10T07:14:47.087Z,41.40
2023-04-10T07:17:14.545Z,41.24
2023-04-10T07:19:42.037Z,41.06
2023-04-10T07:22:09.558Z,40.68
2023-04-10T07:24:37.373Z,40.71
2023-04-10T07:27:04.903Z,40.70
2023-04-10T07:29:32.398Z,40.08
2023-04-10T07:32:00.139Z,40.35
2023-04-10T07:34:27.773Z,40.42
2023-04-10T07:36:55.289Z,39.58
2023-04-10T07:39:22.789Z,40.06
2023-04-10T07:41:50.453Z,39.51
2023-04-10T07:44:18.530Z,39.95
2023-04-10T07:46:46.013Z,39.87
2023-04-10T07:49:13.541Z,39.97
2023-04-10T07:51:41.053Z,40.09
2023-04-10T07:54:08.559Z,39.52
2023-04-10T07:56:36.229Z,39.45
2023-04-10T07:59:04.159Z,39.80
2023-04-10T08:01:31.786Z,39.72
2023-04-10T08:04:00.019Z,39.55
2023-04-10T08:06:28.606Z,39.76
2023-04-10T08:08:56.411Z,39.89
2023-04-10T08:11:30.271Z,39.52
2023-04-10T08:14:03.670Z,39.57
2023-04-10T08:16:36.277Z,38.71
2023-04-10T08:19:03.872Z,38.57
2023-04-10T08:21:32.013Z,38.31
2023-04-10T08:24:02.642Z,38.04
2023-04-10T08:26:30.335Z,38.15
2023-04-10T08:28:59.808Z,38.09
2023-04-10T08:31:28.923Z,37.86
2023-04-10T08:33:57.285Z,37.54
2023-04-10T08:36:27.088Z,36.84
2023-04-10T08:38:54.662Z,37.21
2023-04-10T08:41:22.345Z,36.65
2023-04-10T08:43:50.930Z,36.07
2023-04-10T08:46:18.590Z,35.83
2023-04-10T08:48:53.103Z,35.46
2023-04-10T08:51:26.132Z,35.45
2023-04-10T08:54:10.387Z,36.13
2023-04-10T08:56:40.982Z,35.22
2023-04-10T08:59:09.194Z,35.21
2023-04-10T09:01:37.103Z,35.24
2023-04-10T09:04:05.488Z,34.99
2023-04-10T09:06:33.435Z,34.91
2023-04-10T09:11:56.920Z,34.75
2023-04-10T09:14:33.664Z,34.06
2023-04-10T09:17:21.905Z,34.41
2023-04-10T09:19:53.198Z,34.09
2023-04-10T09:22:35.293Z,34.21
2023-04-10T09:25:04.765Z,33.83
2023-04-10T09:27:37.258Z,33.48
2023-04-10T09:30:07.013Z,33.54
2023-04-10T09:32:44.392Z,33.59
2023-04-10T09:35:14.377Z,33.55
2023-04-10T09:37:45.020Z,32.91
2023-04-10T09:40:25.043Z,32.72
2023-04-10T09:42:55.832Z,32.64
2023-04-10T09:45:23.440Z,32.34
2023-04-10T09:48:08.399Z,32.58
2023-04-10T09:50:43.566Z,32.45
2023-04-10T09:53:19.448Z,32.65
2023-04-10T09:55:49.305Z,31.48
2023-04-10T09:58:17.922Z,31.51
2023-04-10T10:00:47.996Z,31.29
2023-04-10T10:03:21.289Z,31.53
2023-04-10T10:05:51.938Z,31.37
2023-04-10T10:08:20.015Z,30.85
2023-04-10T10:10:57.499Z,31.01
2023-04-10T10:13:30.305Z,30.85
2023-04-10T10:16:27.805Z,30.90
2023-04-10T10:19:01.994Z,30.97
2023-04-10T10:21:30.569Z,30.60
2023-04-10T10:24:01.548Z,30.28
2023-04-10T10:26:30.443Z,29.97
2023-04-10T10:28:59.165Z,29.86
2023-04-10T10:31:32.599Z,30.00
2023-04-10T10:34:04.783Z,30.15
2023-04-10T10:36:32.358Z,29.72
2023-04-10T10:39:33.195Z,29.78
2023-04-10T10:42:32.751Z,29.74
2023-04-10T10:45:09.579Z,29.40
2023-04-10T10:47:45.775Z,29.30
2023-04-10T10:50:13.339Z,29.53
2023-04-10T10:52:46.678Z,28.61
2023-04-10T10:55:25.969Z,29.10
2023-04-10T10:57:56.002Z,28.65
2023-04-10T11:00:25.863Z,28.52
2023-04-10T11:03:08.511Z,28.90
2023-04-10T11:05:56.993Z,29.06
2023-04-10T11:08:33.658Z,28.39
2023-04-10T11:11:08.294Z,27.99
2023-04-10T11:13:41.431Z,28.08
2023-04-10T11:16:10.739Z,28.33
2023-04-10T11:18:55.895Z,28.29
2023-04-10T11:21:31.472Z,28.13
2023-04-10T11:23:59.226Z,27.77
2023-04-10T11:26:39.134Z,27.75
2023-04-10T11:29:17.127Z,27.55
2023-04-10T11:31:46.195Z,27.64
2023-04-10T11:34:15.584Z,27.78
2023-04-10T11:36:44.600Z,27.17
2023-04-10T11:39:17.857Z,26.92
2023-04-10T11:41:50.982Z,26.46
2023-04-10T11:44:31.543Z,26.82
2023-04-10T11:46:59.140Z,26.65
2023-04-10T11:49:36.910Z,26.35
2023-04-10T11:52:04.563Z,25.81
2023-04-10T11:54:32.492Z,24.97
2023-04-10T11:57:05.586Z,24.45
2023-04-10T11:59:34.599Z,24.09
2023-04-10T12:02:15.358Z,24.43
2023-04-10T12:04:45.952Z,24.46
2023-04-10T12:07:13.513Z,24.17
2023-04-10T12:09:41.348Z,24.03
2023-04-10T12:12:09.068Z,23.92
2023-04-10T12:14:42.601Z,23.86
2023-04-10T12:17:12.807Z,22.99
2023-04-10T12:19:41.452Z,22.95
2023-04-10T12:22:12.835Z,23.06
2023-04-10T12:24:44.472Z,23.10
2023-04-10T12:27:27.518Z,23.54
2023-04-10T12:29:57.993Z,23.02
2023-04-10T12:32:27.618Z,22.99
2023-04-10T12:34:57.412Z,22.39
2023-04-10T12:37:26.468Z,22.25
2023-04-10T12:41:02.972Z,22.71
2023-04-10T12:48:08.475Z,22.77
2023-04-10T12:50:50.109Z,22.27
2023-04-10T12:53:17.622Z,21.82
2023-04-10T12:55:59.335Z,21.79
2023-04-10T12:58:31.500Z,21.50
2023-04-10T13:01:07.279Z,20.93
2023-04-10T13:03:36.399Z,21.17
2023-04-10T13:06:08.220Z,20.67
2023-04-10T13:08:36.852Z,21.18
2023-04-10T13:11:04.516Z,20.87
2023-04-10T13:13:35.462Z,20.59
2023-04-10T13:16:03.080Z,20.02
2023-04-10T13:18:30.626Z,20.27
2023-04-10T13:20:58.161Z,20.15
2023-04-10T13:23:25.730Z,20.02
2023-04-10T13:25:53.624Z,20.26
2023-04-10T13:28:21.526Z,20.32
2023-04-10T13:30:49.080Z,19.84
2023-04-10T13:33:16.587Z,20.40
2023-04-10T13:35:44.136Z,19.88
2023-04-10T13:38:11.724Z,20.02
2023-04-10T13:40:39.325Z,19.64
2023-04-10T13:43:06.815Z,19.06
2023-04-10T13:45:34.865Z,19.00
2023-04-10T13:48:02.383Z,18.78
2023-04-10T13:50:29.886Z,18.78
2023-04-10T13:52:57.636Z,18.65
2023-04-10T13:55:25.390Z,18.99
2023-04-10T13:57:52.924Z,18.65
2023-04-10T14:00:20.549Z,18.97
2023-04-10T14:02:48.147Z,18.97
2023-04-10T14:05:15.811Z,19.02
2023-04-10T14:07:43.287Z,19.21
2023-04-10T14:10:11.105Z,19.57
2023-04-10T14:12:38.694Z,19.22
2023-04-10T14:15:07.067Z,18.84
2023-04-10T14:17:34.724Z,18.45
2023-04-10T14:20:02.278Z,18.47
2023-04-10T14:22:31.586Z,18.45
2023-04-10T14:25:11.908Z,18.61
2023-04-10T14:27:41.447Z,18.40
2023-04-10T14:30:10.438Z,18.76
2023-04-10T14:32:41.411Z,18.89
2023-04-10T14:35:09.702Z,18.93
2023-04-10T14:37:37.544Z,18.68
2023-04-10T14:40:05.971Z,18.95
2023-04-10T14:42:33.465Z,18.62
2023-04-10T14:45:00.996Z,18.47
2023-04-10T14:47:28.615Z,18.54
2023-04-10T14:49:56.161Z,18.50
2023-04-10T14:52:23.972Z,18.49
2023-04-10T14:54:51.470Z,17.67
2023-04-10T14:57:18.926Z,17.20
2023-04-10T14:59:46.403Z,17.37
2023-04-10T15:02:13.912Z,17.11
2023-04-10T15:04:42.431Z,17.93
2023-04-10T15:07:09.912Z,17.55
2023-04-10T15:09:37.787Z,17.68
2023-04-10T15:12:05.420Z,17.55
2023-04-10T15:14:33.305Z,17.21
2023-04-10T15:17:00.894Z,17.86
2023-04-10T15:19:28.558Z,17.30
2023-04-10T15:21:56.033Z,17.55
2023-04-10T15:24:23.546Z,17.85
2023-04-10T15:26:51.114Z,18.15
2023-04-10T15:29:18.795Z,18.13
2023-04-10T15:31:46.309Z,18.64
2023-04-10T15:34:13.789Z,18.04
2023-04-10T15:36:41.274Z,18.11
2023-04-10T15:39:08.870Z,18.34
2023-04-10T15:41:36.443Z,18.13
2023-04-10T15:44:04.392Z,18.38
2023-04-10T15:46:33.088Z,18.76
2023-04-10T15:49:01.053Z,18.30
2023-04-10T15:51:28.625Z,18.85
2023-04-10T15:53:56.296Z,18.90
2023-04-10T15:56:23.890Z,18.99
2023-04-10T15:58:51.518Z,18.85
2023-04-10T16:01:19.103Z,18.80
2023-04-10T16:03:46.817Z,18.80
2023-04-10T16:06:14.805Z,19.25
2023-04-10T16:08:42.390Z,19.39
2023-04-10T16:11:09.903Z,19.36
2023-04-10T16:13:39.840Z,19.16
2023-04-10T16:16:15.437Z,19.50
2023-04-10T16:18:46.452Z,19.25
2023-04-10T16:21:14.868Z,19.21
2023-04-10T16:26:09.580Z,19.46
2023-04-10T16:28:37.104Z,18.94
2023-04-10T16:31:04.936Z,18.86
2023-04-10T16:33:32.563Z,18.95
2023-04-10T16:36:02.928Z,18.77
2023-04-10T16:38:31.590Z,18.94
2023-04-10T16:41:03.107Z,19.21
2023-04-10T16:43:31.189Z,19.48
2023-04-10T16:45:59.845Z,19.18
2023-04-10T16:48:27.508Z,19.03
2023-04-10T16:50:55.063Z,19.00
2023-04-10T16:53:22.565Z,19.48
2023-04-10T16:56:01.933Z,18.96
2023-04-10T16:58:31.213Z,19.23
2023-04-10T17:00:58.809Z,19.63
2023-04-10T17:03:26.428Z,19.47
2023-04-10T17:05:53.949Z,19.43
2023-04-10T17:08:21.494Z,19.72
2023-04-10T17:10:49.008Z,19.77
2023-04-10T17:13:17.419Z,19.99
2023-04-10T17:15:46.146Z,19.80
2023-04-10T17:18:15.055Z,20.21
2023-04-10T17:20:42.597Z,20.13
2023-04-10T17:23:11.234Z,20.17
2023-04-10T17:25:42.092Z,20.45
2023-04-10T17:28:09.592Z,20.19
2023-04-10T17:30:37.244Z,20.30
2023-04-10T17:33:04.897Z,20.30
2023-04-10T17:35:32.414Z,20.20
2023-04-10T17:37:59.906Z,20.53
2023-04-10T17:40:27.450Z,20.47
2023-04-10T17:42:54.925Z,20.69
2023-04-10T17:45:22.445Z,20.37
2023-04-10T17:47:49.939Z,20.83
2023-04-10T17:50:17.477Z,20.85
2023-04-10T17:52:44.944Z,20.84
2023-04-10T17:55:12.567Z,21.14
2023-04-10T17:57:40.134Z,21.21
2023-04-10T18:00:09.416Z,21.42
2023-04-10T18:02:37.321Z,21.35
2023-04-10T18:05:06.427Z,21.49
2023-04-10T18:07:33.879Z,21.62
2023-04-10T18:10:01.635Z,21.80
2023-04-10T18:12:29.135Z,21.81
2023-04-10T18:14:56.617Z,21.84
2023-04-10T18:17:24.131Z,21.87
2023-04-10T18:19:51.765Z,21.93
2023-04-10T18:22:19.665Z,21.99
2023-04-10T18:24:50.209Z,22.23
2023-04-10T18:27:17.677Z,22.17
2023-04-10T18:29:45.732Z,22.43
2023-04-10T18:32:13.263Z,22.50
2023-04-10T18:34:40.785Z,22.67
2023-04-10T18:37:09.860Z,22.90
2023-04-10T18:39:38.202Z,22.90
2023-04-10T18:42:10.471Z,23.13
2023-04-10T18:44:38.001Z,23.35
2023-04-10T18:47:05.608Z,23.31
2023-04-10T18:49:33.242Z,23.40
2023-04-10T18:52:00.902Z,23.61
2023-04-10T18:54:29.768Z,23.64
2023-04-10T18:56:57.355Z,23.61
2023-04-10T18:59:24.908Z,23.83
2023-04-10T19:01:52.863Z,23.99
2023-04-10T19:04:20.665Z,23.97
2023-04-10T19:06:48.322Z,24.12
2023-04-10T19:09:15.875Z,24.29
2023-04-10T19:11:43.334Z,24.50
2023-04-10T19:14:10.965Z,24.47
2023-04-10T19:16:38.488Z,24.58
2023-04-10T19:19:06.000Z,24.52
2023-04-10T19:21:34.376Z,24.63
2023-04-10T19:24:02.171Z,24.63
2023-04-10T19:26:29.677Z,24.87
2023-04-10T19:28:57.514Z,24.88
2023-04-10T19:31:27.530Z,25.01
2023-04-10T19:33:55.998Z,25.13
2023-04-10T19:36:23.515Z,25.13
2023-04-10T19:38:51.326Z,25.19
2023-04-10T19:41:18.842Z,25.27
2023-04-10T19:43:46.433Z,25.50
2023-04-10T19:46:21.211Z,25.59
2023-04-10T19:48:49.121Z,25.62
2023-04-10T19:51:16.614Z,25.85
2023-04-10T19:53:44.227Z,26.07
2023-04-10T19:56:11.729Z,26.19
2023-04-10T19:58:40.982Z,26.19
2023-04-10T20:01:24.183Z,26.27
2023-04-10T20:03:51.947Z,26.28
2023-04-10T20:06:21.393Z,26.57
2023-04-10T20:08:48.877Z,26.57
2023-04-10T20:11:16.721Z,26.71
2023-04-10T20:13:44.218Z,26.99
2023-04-10T20:16:12.061Z,27.14
2023-04-10T20:18:40.223Z,27.10
2023-04-10T20:21:08.155Z,27.48
2023-04-10T20:23:36.634Z,27.43
2023-04-10T20:26:04.209Z,27.60
2023-04-10T20:28:31.725Z,27.88
2023-04-10T20:30:59.238Z,28.05
2023-04-10T20:33:26.712Z,28.13
2023-04-10T20:35:54.276Z,28.24
2023-04-10T20:38:21.822Z,28.43
2023-04-10T20:40:49.295Z,28.46
2023-04-10T20:43:18.541Z,28.53
2023-04-10T20:45:46.026Z,28.72
2023-04-10T20:48:13.746Z,28.90
2023-04-10T20:50:46.575Z,28.91
2023-04-10T20:53:14.068Z,28.79
2023-04-10T20:55:41.612Z,29.04
2023-04-10T20:58:09.086Z,29.11
2023-04-10T21:00:37.350Z,29.26
2023-04-10T21:03:05.552Z,29.45
2023-04-10T21:05:33.126Z,29.32
2023-04-10T21:08:00.666Z,29.51
2023-04-10T21:10:28.171Z,29.61
2023-04-10T21:12:55.644Z,29.80
2023-04-10T21:15:23.137Z,29.75
2023-04-10T21:17:50.685Z,29.87
2023-04-10T21:20:18.381Z,29.89
2023-04-10T21:22:45.874Z,30.07
2023-04-10T21:25:13.420Z,30.12
2023-04-10T21:27:40.943Z,30.19
2023-04-10T21:30:09.087Z,30.36
2023-04-10T21:32:36.639Z,30.49
2023-04-10T21:35:04.448Z,30.34
2023-04-10T21:37:31.919Z,30.41
2023-04-10T21:39:59.515Z,30.40
2023-04-10T21:42:26.995Z,30.55
2023-04-10T21:44:54.796Z,30.53
2023-04-10T21:47:22.274Z,30.54
2023-04-10T21:49:49.766Z,30.59
2023-04-10T21:52:17.247Z,30.60
2023-04-10T21:54:44.762Z,30.66
2023-04-10T21:57:12.245Z,30.65
2023-04-10T21:59:39.768Z,30.57
2023-04-10T22:02:07.382Z,30.81
2023-04-10T22:04:38.902Z,30.57
2023-04-10T22:07:12.182Z,30.61
2023-04-10T22:09:39.717Z,30.75
2023-04-10T22:12:07.446Z,30.83
2023-04-10T22:14:35.022Z,30.95
2023-04-10T22:17:02.574Z,30.99
2023-04-10T22:19:30.243Z,30.97
2023-04-10T22:21:57.741Z,31.09
2023-04-10T22:24:25.345Z,31.31
2023-04-10T22:26:52.892Z,31.29
2023-04-10T22:29:20.368Z,31.46
2023-04-10T22:31:47.878Z,31.62
2023-04-10T22:34:15.371Z,31.76
2023-04-10T22:36:42.870Z,31.91
2023-04-10T22:39:10.953Z,32.13
2023-04-10T22:41:38.569Z,32.36
2023-04-10T22:44:07.296Z,32.25
2023-04-10T22:46:38.182Z,32.63
2023-04-10T22:49:06.429Z,32.52
2023-04-10T22:51:33.958Z,32.51
2023-04-10T22:54:01.528Z,32.66
2023-04-10T22:56:29.368Z,32.56
2023-04-10T22:58:56.994Z,32.82
2023-04-10T23:01:24.722Z,32.93
2023-04-10T23:03:53.710Z,33.34
2023-04-10T23:06:21.516Z,33.45
2023-04-10T23:08:49.006Z,33.56
2023-04-10T23:11:16.608Z,33.74
2023-04-10T23:13:44.163Z,34.13
2023-04-10T23:16:11.977Z,34.17
2023-04-10T23:18:39.492Z,34.61
2023-04-10T23:21:07.525Z,34.90
2023-04-10T23:23:35.312Z,35.13
2023-04-10T23:26:02.960Z,35.30
2023-04-10T23:28:30.460Z,35.32
2023-04-10T23:30:58.006Z,35.20
2023-04-10T23:33:25.566Z,35.30
2023-04-10T23:35:53.128Z,35.05
2023-04-10T23:38:21.207Z,35.19
2023-04-10T23:40:48.738Z,35.16
2023-04-10T23:43:16.244Z,35.25
2023-04-10T23:45:43.723Z,35.53
2023-04-10T23:48:11.956Z,35.71
2023-04-10T23:50:39.482Z,35.40
2023-04-10T23:53:09.799Z,35.64
2023-04-10T23:55:39.323Z,36.21
2023-04-10T23:58:07.091Z,36.51
